createdAt,value
2023-08-15T00:00:10.068Z,9.30
2023-08-15T00:00:45.276Z,9.50
2023-08-15T00:01:17.581Z,9.85
2023-08-15T00:01:50.007Z,10.40
2023-08-15T00:02:22.556Z,10.15
2023-08-15T00:02:54.944Z,10.35
2023-08-15T00:03:27.627Z,10.18
2023-08-15T00:04:00.199Z,10.00
2023-08-15T00:04:33.377Z,10.13
2023-08-15T00:05:05.866Z,9.85
2023-08-15T00:05:58.237Z,10.23
2023-08-15T00:06:30.493Z,10.02
2023-08-15T00:07:05.636Z,10.35
2023-08-15T00:07:37.974Z,10.63
2023-08-15T00:08:10.261Z,9.90
2023-08-15T00:08:42.509Z,9.85
2023-08-15T00:09:14.897Z,10.50
2023-08-15T00:09:47.408Z,9.50
2023-08-15T00:10:19.678Z,10.50
2023-08-15T00:10:52.529Z,10.15
2023-08-15T00:11:25.112Z,10.37
2023-08-15T00:11:57.365Z,9.80
2023-08-15T00:12:29.692Z,10.60
2023-08-15T00:13:02.085Z,10.52
2023-08-15T00:13:34.419Z,10.18
2023-08-15T00:14:06.874Z,9.85
2023-08-15T00:14:39.339Z,9.85
2023-08-15T00:15:11.979Z,10.38
2023-08-15T00:15:44.289Z,9.63
2023-08-15T00:16:16.603Z,10.27
2023-08-15T00:16:48.912Z,10.67
2023-08-15T00:17:21.379Z,9.77
2023-08-15T00:17:53.891Z,10.32
2023-08-15T00:18:26.226Z,10.35
2023-08-15T00:18:58.694Z,10.73
2023-08-15T00:19:30.972Z,9.93
2023-08-15T00:20:03.775Z,10.43
2023-08-15T00:20:36.217Z,10.13
2023-08-15T00:21:08.497Z,10.65
2023-08-15T00:21:40.741Z,9.30
2023-08-15T00:22:13.352Z,10.27
2023-08-15T00:22:45.621Z,10.05
2023-08-15T00:23:18.172Z,10.10
2023-08-15T00:23:50.514Z,10.23
2023-08-15T00:24:22.910Z,9.90
2023-08-15T00:24:55.222Z,10.15
2023-08-15T00:25:27.684Z,9.95
2023-08-15T00:25:59.966Z,9.60
2023-08-15T00:26:32.319Z,9.40
2023-08-15T00:27:05.250Z,9.63
2023-08-15T00:27:37.703Z,9.87
2023-08-15T00:28:10.147Z,9.98
2023-08-15T00:28:43.422Z,10.13
2023-08-15T00:29:15.802Z,10.23
2023-08-15T00:29:48.338Z,9.77
2023-08-15T00:30:20.647Z,9.73
2023-08-15T00:30:52.940Z,10.00
2023-08-15T00:31:25.552Z,9.85
2023-08-15T00:31:58.162Z,10.35
2023-08-15T00:32:32.637Z,10.10
2023-08-15T00:33:05.091Z,10.77
2023-08-15T00:33:38.187Z,10.10
2023-08-15T00:34:11.161Z,10.35
2023-08-15T00:34:43.443Z,10.70
2023-08-15T00:35:17.175Z,10.25
2023-08-15T00:35:49.841Z,9.93
2023-08-15T00:36:22.193Z,10.25
2023-08-15T00:36:54.537Z,10.18
2023-08-15T00:37:26.912Z,10.27
2023-08-15T00:37:59.227Z,10.23
2023-08-15T00:38:31.531Z,10.37
2023-08-15T00:39:04.139Z,9.77
2023-08-15T00:39:36.465Z,10.25
2023-08-15T00:40:09.172Z,10.98
2023-08-15T00:40:41.839Z,11.18
2023-08-15T00:41:14.143Z,10.27
2023-08-15T00:41:46.575Z,9.65
2023-08-15T00:42:19.505Z,9.75
2023-08-15T00:42:52.016Z,10.52
2023-08-15T00:43:24.287Z,10.25
2023-08-15T00:43:57.516Z,10.20
2023-08-15T00:44:29.944Z,10.13
2023-08-15T00:45:04.022Z,10.38
2023-08-15T00:45:39.054Z,10.85
2023-08-15T00:46:11.580Z,10.43
2023-08-15T00:46:45.498Z,9.85
2023-08-15T00:47:18.734Z,11.15
2023-08-15T00:47:51.573Z,10.32
2023-08-15T00:48:24.264Z,10.98
2023-08-15T00:48:57.004Z,10.57
2023-08-15T00:49:29.345Z,10.87
2023-08-15T00:50:02.969Z,10.65
2023-08-15T00:50:35.491Z,10.93
2023-08-15T00:51:07.877Z,11.73
2023-08-15T00:51:40.646Z,10.80
2023-08-15T00:52:13.970Z,10.70
2023-08-15T00:52:46.536Z,10.52
2023-08-15T00:53:20.722Z,11.32
2023-08-15T00:53:53.143Z,10.73
2023-08-15T00:54:25.442Z,10.73
2023-08-15T00:54:57.840Z,11.07
2023-08-15T00:55:30.368Z,10.68
2023-08-15T00:56:03.563Z,10.80
2023-08-15T00:56:36.270Z,11.10
2023-08-15T00:57:08.611Z,11.05
2023-08-15T00:57:41.075Z,10.68
2023-08-15T00:58:13.597Z,10.60
2023-08-15T00:58:46.019Z,10.35
2023-08-15T00:59:18.412Z,10.70
2023-08-15T00:59:51.056Z,11.13
2023-08-15T01:00:23.655Z,11.20
2023-08-15T01:00:56.470Z,10.75
2023-08-15T01:01:28.977Z,11.35
2023-08-15T01:02:01.537Z,11.38
2023-08-15T01:02:34.556Z,10.82
2023-08-15T01:03:07.249Z,11.07
2023-08-15T01:03:40.382Z,10.27
2023-08-15T01:04:13.299Z,10.85
2023-08-15T01:04:45.716Z,10.65
2023-08-15T01:05:19.498Z,10.45
2023-08-15T01:05:52.869Z,10.93
2023-08-15T01:06:26.815Z,10.90
2023-08-15T01:06:59.200Z,11.15
2023-08-15T01:07:31.541Z,11.15
2023-08-15T01:08:04.053Z,10.98
2023-08-15T01:08:36.549Z,10.52
2023-08-15T01:09:09.683Z,10.07
2023-08-15T01:09:42.126Z,10.90
2023-08-15T01:10:14.511Z,11.10
2023-08-15T01:10:46.796Z,10.38
2023-08-15T01:11:19.135Z,10.90
2023-08-15T01:11:54.399Z,10.30
2023-08-15T01:12:30.000Z,11.38
2023-08-15T01:13:07.569Z,11.23
2023-08-15T01:13:45.861Z,11.93
2023-08-15T01:14:20.654Z,11.32
2023-08-15T01:14:55.642Z,11.65
2023-08-15T01:15:28.881Z,11.57
2023-08-15T01:16:04.751Z,11.60
2023-08-15T01:16:38.655Z,10.88
2023-08-15T01:17:13.863Z,11.03
2023-08-15T01:17:52.244Z,11.43
2023-08-15T01:18:38.788Z,10.98
2023-08-15T01:19:30.291Z,11.50
2023-08-15T01:20:06.362Z,11.80
2023-08-15T01:20:39.143Z,11.45
2023-08-15T01:21:14.504Z,11.50
2023-08-15T01:21:49.130Z,11.38
2023-08-15T01:22:24.910Z,11.30
2023-08-15T01:22:59.205Z,11.68
2023-08-15T01:23:50.744Z,11.03
2023-08-15T01:24:23.740Z,11.07
2023-08-15T01:24:58.775Z,10.68
2023-08-15T01:25:34.479Z,11.35
2023-08-15T01:26:06.822Z,10.80
2023-08-15T01:26:39.200Z,10.52
2023-08-15T01:27:11.590Z,10.65
2023-08-15T01:27:43.937Z,10.82
2023-08-15T01:28:16.788Z,9.98
2023-08-15T01:28:49.142Z,10.15
2023-08-15T01:29:21.586Z,11.00
2023-08-15T01:29:53.946Z,10.52
2023-08-15T01:30:26.418Z,10.50
2023-08-15T01:31:09.218Z,10.57
2023-08-15T01:31:43.969Z,10.45
2023-08-15T01:32:33.984Z,10.80
2023-08-15T01:33:29.140Z,10.98
2023-08-15T01:34:16.696Z,10.48
2023-08-15T01:34:56.119Z,10.93
2023-08-15T01:35:31.150Z,10.63
2023-08-15T01:36:05.724Z,11.00
2023-08-15T01:36:41.033Z,10.85
2023-08-15T01:37:28.341Z,10.60
2023-08-15T01:38:04.032Z,11.35
2023-08-15T01:38:39.936Z,10.30
2023-08-15T01:39:14.169Z,10.40
2023-08-15T01:39:49.988Z,10.35
2023-08-15T01:40:23.548Z,10.60
2023-08-15T01:40:56.852Z,11.05
2023-08-15T01:41:30.569Z,10.45
2023-08-15T01:42:03.874Z,10.40
2023-08-15T01:42:37.331Z,10.60
2023-08-15T01:43:11.606Z,10.52
2023-08-15T01:43:44.688Z,10.48
2023-08-15T01:44:17.465Z,10.73
2023-08-15T01:44:51.901Z,10.38
2023-08-15T01:45:25.292Z,10.23
2023-08-15T01:46:01.660Z,10.60
2023-08-15T01:46:34.737Z,10.52
2023-08-15T01:47:07.285Z,10.52
2023-08-15T01:47:39.991Z,10.60
2023-08-15T01:48:12.355Z,10.20
2023-08-15T01:48:45.110Z,10.10
2023-08-15T01:49:17.458Z,11.05
2023-08-15T01:49:49.900Z,11.40
2023-08-15T01:50:22.139Z,10.55
2023-08-15T01:50:54.454Z,10.60
2023-08-15T01:51:26.790Z,10.88
2023-08-15T01:51:59.103Z,11.18
2023-08-15T01:52:31.577Z,10.57
2023-08-15T01:53:03.973Z,10.73
2023-08-15T01:53:39.522Z,10.80
2023-08-15T01:54:11.788Z,10.65
2023-08-15T01:54:44.253Z,10.45
2023-08-15T01:55:16.885Z,11.35
2023-08-15T01:55:49.172Z,10.98
2023-08-15T01:56:21.976Z,11.20
2023-08-15T01:56:54.294Z,10.68
2023-08-15T01:57:26.581Z,9.98
2023-08-15T01:57:59.326Z,10.75
2023-08-15T01:58:31.684Z,10.60
2023-08-15T01:59:04.117Z,10.38
2023-08-15T01:59:36.484Z,10.43
2023-08-15T02:00:09.031Z,11.18
2023-08-15T02:00:50.493Z,10.30
2023-08-15T02:01:22.896Z,10.60
2023-08-15T02:01:55.212Z,10.82
2023-08-15T02:02:27.519Z,11.43
2023-08-15T02:03:00.077Z,11.48
2023-08-15T02:03:32.464Z,11.13
2023-08-15T02:04:04.889Z,11.13
2023-08-15T02:04:37.325Z,10.73
2023-08-15T02:05:09.888Z,11.57
2023-08-15T02:05:42.279Z,10.95
2023-08-15T02:06:15.578Z,11.13
2023-08-15T02:06:47.985Z,11.50
2023-08-15T02:07:20.622Z,11.50
2023-08-15T02:07:53.306Z,10.90
2023-08-15T02:08:25.817Z,10.93
2023-08-15T02:08:58.194Z,10.82
2023-08-15T02:09:30.529Z,11.13
2023-08-15T02:10:02.860Z,11.13
2023-08-15T02:10:35.255Z,11.38
2023-08-15T02:11:08.068Z,11.45
2023-08-15T02:11:40.411Z,10.93
2023-08-15T02:12:12.856Z,12.13
2023-08-15T02:12:45.167Z,11.15
2023-08-15T02:13:17.856Z,11.48
2023-08-15T02:13:50.537Z,11.38
2023-08-15T02:14:23.062Z,10.90
2023-08-15T02:14:55.371Z,11.30
2023-08-15T02:15:28.126Z,10.77
2023-08-15T02:16:02.445Z,11.52
2023-08-15T02:16:34.802Z,11.13
2023-08-15T02:17:07.214Z,11.07
2023-08-15T02:17:39.887Z,11.93
2023-08-15T02:18:12.393Z,10.98
2023-08-15T02:18:45.358Z,11.05
2023-08-15T02:19:17.687Z,11.88
2023-08-15T02:19:50.468Z,11.07
2023-08-15T02:20:23.066Z,11.10
2023-08-15T02:20:55.761Z,10.43
2023-08-15T02:21:28.296Z,11.48
2023-08-15T02:22:00.596Z,12.35
2023-08-15T02:22:33.144Z,10.80
2023-08-15T02:23:05.469Z,10.98
2023-08-15T02:23:37.821Z,11.27
2023-08-15T02:24:11.112Z,10.90
2023-08-15T02:24:43.393Z,11.40
2023-08-15T02:25:15.793Z,10.90
2023-08-15T02:25:48.424Z,11.13
2023-08-15T02:26:21.176Z,11.48
2023-08-15T02:26:53.551Z,11.38
2023-08-15T02:27:25.887Z,12.45
2023-08-15T02:27:58.251Z,11.80
2023-08-15T02:28:32.482Z,11.60
2023-08-15T02:29:04.882Z,11.13
2023-08-15T02:29:37.230Z,11.52
2023-08-15T02:30:09.774Z,11.48
2023-08-15T02:30:42.751Z,11.70
2023-08-15T02:31:16.279Z,11.73
2023-08-15T02:31:49.237Z,11.63
2023-08-15T02:32:21.592Z,12.07
2023-08-15T02:32:54.919Z,12.60
2023-08-15T02:33:27.334Z,11.95
2023-08-15T02:33:59.588Z,11.55
2023-08-15T02:34:31.846Z,10.98
2023-08-15T02:35:04.362Z,12.13
2023-08-15T02:35:39.659Z,11.98
2023-08-15T02:36:12.026Z,11.75
2023-08-15T02:36:50.093Z,12.07
2023-08-15T02:37:22.730Z,11.70
2023-08-15T02:37:55.262Z,11.70
2023-08-15T02:38:27.613Z,12.23
2023-08-15T02:39:00.164Z,11.77
2023-08-15T02:39:32.498Z,12.00
2023-08-15T02:40:07.421Z,11.68
2023-08-15T02:40:41.966Z,12.07
2023-08-15T02:41:14.255Z,12.40
2023-08-15T02:41:46.655Z,11.57
2023-08-15T02:42:18.942Z,11.70
2023-08-15T02:42:51.836Z,12.25
2023-08-15T02:43:24.528Z,11.85
2023-08-15T02:43:56.807Z,11.95
2023-08-15T02:44:29.199Z,12.05
2023-08-15T02:45:04.144Z,12.10
2023-08-15T02:45:38.704Z,11.80
2023-08-15T02:46:11.754Z,11.60
2023-08-15T02:46:44.092Z,11.77
2023-08-15T02:47:18.465Z,11.45
2023-08-15T02:47:51.703Z,12.17
2023-08-15T02:48:24.221Z,11.88
2023-08-15T02:48:56.555Z,11.68
2023-08-15T02:49:29.180Z,12.02
2023-08-15T02:50:02.586Z,12.40
2023-08-15T02:50:36.026Z,11.70
2023-08-15T02:51:09.114Z,11.65
2023-08-15T02:51:41.545Z,11.55
2023-08-15T02:52:13.879Z,11.80
2023-08-15T02:52:46.208Z,11.60
2023-08-15T02:53:18.480Z,11.97
2023-08-15T02:53:50.961Z,11.50
2023-08-15T02:54:23.272Z,11.60
2023-08-15T02:54:55.609Z,11.85
2023-08-15T02:55:28.048Z,12.02
2023-08-15T02:56:00.409Z,12.13
2023-08-15T02:56:32.692Z,11.75
2023-08-15T02:57:05.426Z,12.25
2023-08-15T02:57:38.392Z,11.75
2023-08-15T02:58:10.751Z,11.68
2023-08-15T02:58:43.854Z,11.73
2023-08-15T02:59:16.202Z,11.38
2023-08-15T02:59:48.543Z,11.25
2023-08-15T03:00:20.882Z,12.70
2023-08-15T03:00:53.843Z,11.77
2023-08-15T03:01:26.215Z,12.07
2023-08-15T03:01:58.511Z,11.75
2023-08-15T03:02:30.864Z,11.05
2023-08-15T03:03:05.169Z,11.57
2023-08-15T03:03:37.995Z,11.30
2023-08-15T03:04:10.486Z,12.43
2023-08-15T03:04:42.876Z,11.52
2023-08-15T03:05:15.263Z,11.20
2023-08-15T03:05:47.564Z,11.70
2023-08-15T03:06:20.488Z,12.02
2023-08-15T03:06:52.813Z,11.50
2023-08-15T03:07:25.504Z,11.40
2023-08-15T03:07:58.024Z,12.05
2023-08-15T03:08:33.160Z,11.80
2023-08-15T03:09:06.168Z,11.38
2023-08-15T03:09:38.630Z,11.53
2023-08-15T03:10:11.051Z,11.23
2023-08-15T03:10:43.889Z,11.65
2023-08-15T03:11:17.336Z,12.13
2023-08-15T03:11:50.588Z,12.13
2023-08-15T03:12:23.169Z,11.40
2023-08-15T03:12:55.567Z,11.27
2023-08-15T03:13:27.875Z,11.13
2023-08-15T03:14:00.132Z,11.80
2023-08-15T03:14:33.163Z,11.32
2023-08-15T03:15:06.028Z,11.40
2023-08-15T03:15:39.033Z,11.35
2023-08-15T03:16:12.631Z,11.38
2023-08-15T03:16:45.162Z,12.20
2023-08-15T03:17:20.735Z,10.80
2023-08-15T03:17:53.502Z,11.27
2023-08-15T03:18:26.832Z,11.18
2023-08-15T03:19:00.199Z,10.75
2023-08-15T03:19:32.646Z,11.50
2023-08-15T03:20:07.264Z,10.68
2023-08-15T03:20:39.797Z,11.47
2023-08-15T03:21:12.151Z,11.60
2023-08-15T03:21:44.471Z,11.35
2023-08-15T03:22:16.759Z,12.05
2023-08-15T03:22:49.935Z,11.80
2023-08-15T03:23:22.953Z,11.15
2023-08-15T03:23:55.391Z,11.52
2023-08-15T03:24:33.274Z,11.00
2023-08-15T03:25:05.840Z,12.20
2023-08-15T03:25:38.172Z,12.07
2023-08-15T03:26:11.419Z,12.50
2023-08-15T03:26:44.540Z,11.63
2023-08-15T03:27:16.993Z,11.48
2023-08-15T03:27:49.305Z,12.30
2023-08-15T03:28:21.680Z,11.40
2023-08-15T03:28:54.051Z,11.43
2023-08-15T03:29:27.390Z,11.57
2023-08-15T03:29:59.868Z,10.98
2023-08-15T03:30:32.344Z,11.93
2023-08-15T03:31:08.285Z,11.38
2023-08-15T03:31:44.297Z,12.27
2023-08-15T03:32:16.633Z,11.73
2023-08-15T03:32:49.830Z,12.10
2023-08-15T03:33:24.102Z,11.70
2023-08-15T03:33:57.673Z,11.88
2023-08-15T03:34:30.302Z,11.75
2023-08-15T03:35:02.636Z,11.80
2023-08-15T03:35:35.340Z,11.60
2023-08-15T03:36:07.932Z,12.57
2023-08-15T03:36:42.374Z,11.40
2023-08-15T03:37:15.334Z,11.17
2023-08-15T03:37:47.829Z,11.68
2023-08-15T03:38:21.979Z,11.82
2023-08-15T03:38:54.638Z,12.40
2023-08-15T03:39:27.519Z,12.27
2023-08-15T03:39:59.805Z,11.50
2023-08-15T03:40:32.066Z,12.32
2023-08-15T03:41:05.943Z,11.68
2023-08-15T03:41:38.737Z,12.25
2023-08-15T03:42:11.039Z,11.00
2023-08-15T03:42:45.018Z,12.60
2023-08-15T03:43:17.293Z,12.52
2023-08-15T03:43:49.624Z,12.45
2023-08-15T03:44:22.438Z,11.65
2023-08-15T03:44:54.776Z,12.55
2023-08-15T03:45:27.110Z,12.13
2023-08-15T03:45:59.792Z,11.82
2023-08-15T03:46:32.332Z,12.02
2023-08-15T03:47:04.781Z,11.90
2023-08-15T03:47:37.170Z,12.25
2023-08-15T03:48:10.195Z,11.90
2023-08-15T03:48:42.624Z,11.80
2023-08-15T03:49:15.009Z,12.25
2023-08-15T03:49:47.316Z,12.07
2023-08-15T03:50:19.796Z,12.18
2023-08-15T03:50:53.981Z,11.98
2023-08-15T03:51:43.865Z,11.80
2023-08-15T03:52:18.671Z,11.75
2023-08-15T03:52:51.032Z,11.60
2023-08-15T03:53:23.401Z,11.55
2023-08-15T03:53:56.066Z,12.33
2023-08-15T03:54:28.865Z,11.77
2023-08-15T03:55:01.902Z,11.95
2023-08-15T03:55:34.572Z,12.82
2023-08-15T03:56:06.875Z,10.88
2023-08-15T03:56:39.162Z,11.63
2023-08-15T03:57:11.425Z,11.95
2023-08-15T03:57:43.724Z,11.48
2023-08-15T03:58:19.875Z,11.32
2023-08-15T03:58:52.759Z,11.18
2023-08-15T03:59:25.074Z,12.07
2023-08-15T03:59:57.370Z,11.63
2023-08-15T04:00:29.663Z,11.55
2023-08-15T04:01:02.797Z,11.43
2023-08-15T04:01:36.182Z,11.77
2023-08-15T04:02:08.614Z,11.35
2023-08-15T04:02:40.948Z,11.88
2023-08-15T04:03:13.302Z,11.50
2023-08-15T04:03:46.966Z,11.52
2023-08-15T04:04:19.370Z,10.88
2023-08-15T04:04:51.812Z,11.43
2023-08-15T04:05:25.511Z,11.80
2023-08-15T04:05:57.791Z,11.35
2023-08-15T04:06:30.161Z,11.40
2023-08-15T04:07:05.037Z,11.30
2023-08-15T04:07:37.330Z,10.80
2023-08-15T04:08:09.642Z,11.77
2023-08-15T04:08:42.122Z,10.82
2023-08-15T04:09:14.479Z,11.35
2023-08-15T04:09:46.791Z,11.02
2023-08-15T04:10:19.993Z,11.20
2023-08-15T04:10:52.388Z,11.35
2023-08-15T04:11:24.722Z,11.43
2023-08-15T04:11:57.181Z,12.18
2023-08-15T04:12:29.470Z,11.52
2023-08-15T04:13:01.913Z,12.02
2023-08-15T04:13:34.191Z,11.45
2023-08-15T04:14:06.548Z,11.30
2023-08-15T04:14:39.815Z,11.65
2023-08-15T04:15:12.146Z,11.20
2023-08-15T04:15:45.115Z,11.27
2023-08-15T04:16:18.005Z,11.23
2023-08-15T04:16:51.082Z,11.38
2023-08-15T04:17:23.606Z,11.73
2023-08-15T04:17:56.166Z,10.80
2023-08-15T04:18:28.892Z,11.57
2023-08-15T04:19:02.509Z,11.43
2023-08-15T04:19:36.312Z,11.32
2023-08-15T04:20:09.063Z,11.98
2023-08-15T04:20:42.322Z,11.25
2023-08-15T04:21:14.659Z,11.53
2023-08-15T04:21:46.922Z,11.77
2023-08-15T04:22:19.393Z,11.70
2023-08-15T04:22:51.696Z,11.82
2023-08-15T04:23:24.016Z,11.85
2023-08-15T04:23:56.374Z,11.30
2023-08-15T04:24:29.790Z,11.10
2023-08-15T04:25:02.095Z,11.15
2023-08-15T04:25:35.342Z,10.93
2023-08-15T04:26:07.876Z,12.07
2023-08-15T04:26:40.189Z,12.10
2023-08-15T04:27:12.550Z,11.27
2023-08-15T04:27:45.215Z,12.05
2023-08-15T04:28:17.646Z,11.85
2023-08-15T04:28:50.017Z,12.05
2023-08-15T04:29:22.508Z,11.73
2023-08-15T04:29:56.756Z,11.20
2023-08-15T04:30:30.985Z,11.98
2023-08-15T04:31:03.733Z,11.35
2023-08-15T04:31:36.273Z,11.82
2023-08-15T04:32:09.208Z,11.80
2023-08-15T04:32:41.712Z,11.52
2023-08-15T04:33:14.047Z,11.23
2023-08-15T04:33:46.436Z,11.93
2023-08-15T04:34:18.698Z,12.02
2023-08-15T04:34:51.149Z,11.63
2023-08-15T04:35:24.570Z,12.10
2023-08-15T04:35:56.930Z,12.00
2023-08-15T04:36:29.748Z,11.98
2023-08-15T04:37:02.042Z,11.60
2023-08-15T04:37:34.389Z,11.90
2023-08-15T04:38:06.709Z,11.45
2023-08-15T04:38:39.718Z,10.85
2023-08-15T04:39:12.780Z,12.05
2023-08-15T04:39:45.575Z,12.10
2023-08-15T04:40:21.723Z,12.27
2023-08-15T04:40:54.836Z,12.45
2023-08-15T04:41:28.390Z,12.57
2023-08-15T04:42:00.633Z,12.32
2023-08-15T04:42:33.048Z,12.10
2023-08-15T04:43:05.546Z,12.90
2023-08-15T04:43:38.450Z,11.98
2023-08-15T04:44:11.844Z,12.05
2023-08-15T04:44:44.312Z,12.85
2023-08-15T04:45:17.063Z,12.48
2023-08-15T04:45:49.414Z,10.88
2023-08-15T04:46:21.888Z,11.75
2023-08-15T04:46:54.427Z,12.20
2023-08-15T04:47:26.834Z,11.63
2023-08-15T04:47:59.348Z,11.77
2023-08-15T04:48:31.658Z,11.77
2023-08-15T04:49:04.031Z,12.48
2023-08-15T04:49:36.332Z,11.68
2023-08-15T04:50:09.687Z,13.05
2023-08-15T04:50:42.003Z,11.75
2023-08-15T04:51:14.274Z,11.65
2023-08-15T04:51:46.537Z,12.48
2023-08-15T04:52:18.808Z,12.05
2023-08-15T04:52:51.412Z,12.95
2023-08-15T04:53:27.148Z,12.35
2023-08-15T04:53:59.522Z,11.80
2023-08-15T04:54:32.798Z,12.00
2023-08-15T04:55:05.343Z,12.05
2023-08-15T04:55:37.766Z,12.27
2023-08-15T04:56:13.031Z,11.60
2023-08-15T04:56:45.347Z,11.85
2023-08-15T04:57:17.666Z,11.52
2023-08-15T04:57:49.984Z,13.23
2023-08-15T04:58:23.182Z,12.50
2023-08-15T04:58:55.598Z,11.15
2023-08-15T04:59:28.258Z,11.20
2023-08-15T05:00:01.965Z,12.30
2023-08-15T05:00:35.506Z,12.45
2023-08-15T05:01:10.701Z,12.57
2023-08-15T05:01:43.107Z,11.90
2023-08-15T05:02:15.405Z,12.98
2023-08-15T05:02:48.594Z,11.82
2023-08-15T05:03:21.106Z,11.43
2023-08-15T05:03:53.490Z,11.70
2023-08-15T05:04:27.378Z,12.52
2023-08-15T05:05:00.274Z,12.60
2023-08-15T05:05:32.880Z,12.30
2023-08-15T05:06:05.401Z,11.95
2023-08-15T05:06:37.881Z,12.15
2023-08-15T05:07:10.147Z,12.77
2023-08-15T05:07:42.460Z,11.70
2023-08-15T05:08:14.777Z,11.93
2023-08-15T05:08:48.657Z,11.32
2023-08-15T05:09:21.245Z,11.95
2023-08-15T05:09:53.658Z,11.95
2023-08-15T05:10:26.227Z,12.20
2023-08-15T05:11:00.356Z,11.52
2023-08-15T05:11:32.860Z,11.77
2023-08-15T05:12:05.657Z,12.20
2023-08-15T05:12:37.999Z,12.07
2023-08-15T05:13:10.808Z,10.93
2023-08-15T05:13:43.186Z,11.63
2023-08-15T05:14:16.452Z,11.02
2023-08-15T05:14:48.803Z,11.63
2023-08-15T05:15:21.154Z,11.10
2023-08-15T05:15:54.645Z,11.80
2023-08-15T05:16:27.375Z,11.02
2023-08-15T05:17:00.181Z,11.10
2023-08-15T05:17:33.714Z,11.20
2023-08-15T05:18:07.074Z,11.15
2023-08-15T05:18:39.441Z,11.43
2023-08-15T05:19:11.807Z,11.52
2023-08-15T05:19:44.120Z,11.40
2023-08-15T05:20:16.690Z,11.13
2023-08-15T05:20:49.200Z,11.63
2023-08-15T05:21:22.043Z,10.47
2023-08-15T05:21:55.993Z,10.80
2023-08-15T05:22:30.075Z,11.27
2023-08-15T05:23:02.716Z,11.93
2023-08-15T05:23:35.056Z,10.82
2023-08-15T05:24:08.452Z,10.88
2023-08-15T05:24:41.639Z,11.10
2023-08-15T05:25:14.222Z,10.60
2023-08-15T05:25:50.885Z,11.57
2023-08-15T05:26:23.298Z,10.35
2023-08-15T05:26:55.636Z,11.07
2023-08-15T05:27:28.334Z,11.23
2023-08-15T05:28:05.868Z,10.57
2023-08-15T05:28:38.211Z,11.38
2023-08-15T05:29:11.150Z,10.90
2023-08-15T05:29:45.230Z,10.63
2023-08-15T05:30:17.625Z,10.80
2023-08-15T05:30:50.333Z,10.75
2023-08-15T05:31:22.768Z,10.75
2023-08-15T05:31:55.156Z,10.25
2023-08-15T05:32:27.586Z,10.97
2023-08-15T05:33:00.777Z,10.93
2023-08-15T05:33:33.202Z,10.63
2023-08-15T05:34:06.023Z,11.27
2023-08-15T05:34:39.088Z,11.45
2023-08-15T05:35:11.659Z,10.15
2023-08-15T05:35:43.960Z,10.85
2023-08-15T05:36:16.596Z,10.82
2023-08-15T05:36:48.958Z,10.68
2023-08-15T05:37:21.659Z,10.88
2023-08-15T05:37:57.096Z,11.00
2023-08-15T05:38:30.174Z,10.57
2023-08-15T05:39:05.585Z,10.88
2023-08-15T05:39:39.485Z,10.77
2023-08-15T05:40:12.206Z,11.02
2023-08-15T05:40:44.838Z,10.10
2023-08-15T05:41:17.828Z,10.57
2023-08-15T05:41:50.099Z,10.65
2023-08-15T05:42:22.441Z,11.15
2023-08-15T05:42:54.739Z,10.75
2023-08-15T05:43:27.017Z,10.03
2023-08-15T05:43:59.276Z,10.45
2023-08-15T05:44:32.008Z,10.50
2023-08-15T05:45:04.868Z,11.57
2023-08-15T05:45:37.190Z,11.45
2023-08-15T05:46:09.867Z,11.18
2023-08-15T05:46:42.173Z,10.75
2023-08-15T05:47:14.621Z,10.13
2023-08-15T05:47:47.021Z,11.10
2023-08-15T05:48:19.388Z,10.50
2023-08-15T05:48:51.681Z,10.90
2023-08-15T05:49:24.058Z,10.73
2023-08-15T05:49:56.651Z,11.25
2023-08-15T05:50:28.943Z,11.27
2023-08-15T05:51:01.655Z,10.68
2023-08-15T05:51:33.916Z,11.15
2023-08-15T05:52:06.255Z,10.45
2023-08-15T05:52:38.541Z,11.10
2023-08-15T05:53:10.901Z,10.57
2023-08-15T05:53:43.172Z,10.43
2023-08-15T05:54:15.440Z,10.27
2023-08-15T05:54:47.786Z,10.45
2023-08-15T05:55:20.504Z,10.63
2023-08-15T05:55:53.046Z,11.05
2023-08-15T05:56:25.316Z,11.23
2023-08-15T05:56:57.787Z,10.40
2023-08-15T05:57:30.159Z,11.02
2023-08-15T05:58:02.656Z,10.68
2023-08-15T05:58:34.981Z,11.40
2023-08-15T05:59:07.694Z,10.90
2023-08-15T05:59:40.036Z,10.97
2023-08-15T06:00:12.666Z,10.48
2023-08-15T06:00:47.586Z,11.00
2023-08-15T06:01:22.445Z,11.00
2023-08-15T06:01:54.857Z,10.27
2023-08-15T06:02:27.161Z,10.70
2023-08-15T06:02:59.519Z,10.10
2023-08-15T06:03:51.207Z,10.77
2023-08-15T06:04:24.665Z,10.00
2023-08-15T06:04:58.567Z,9.65
2023-08-15T06:05:32.020Z,11.10
2023-08-15T06:06:04.355Z,10.77
2023-08-15T06:06:36.648Z,10.93
2023-08-15T06:07:09.227Z,10.38
2023-08-15T06:07:42.621Z,10.82
2023-08-15T06:08:14.881Z,9.82
2023-08-15T06:08:49.250Z,10.40
2023-08-15T06:09:21.674Z,10.80
2023-08-15T06:09:54.012Z,11.05
2023-08-15T06:10:26.511Z,9.82
2023-08-15T06:10:58.910Z,10.27
2023-08-15T06:11:31.456Z,10.70
2023-08-15T06:12:05.485Z,10.93
2023-08-15T06:12:38.051Z,10.88
2023-08-15T06:13:10.301Z,10.68
2023-08-15T06:13:42.598Z,10.52
2023-08-15T06:14:14.876Z,10.10
2023-08-15T06:14:47.165Z,10.38
2023-08-15T06:15:19.675Z,11.75
2023-08-15T06:15:53.105Z,11.18
2023-08-15T06:16:25.436Z,11.50
2023-08-15T06:16:57.932Z,10.68
2023-08-15T06:17:30.224Z,10.82
2023-08-15T06:18:02.701Z,11.65
2023-08-15T06:18:35.056Z,11.30
2023-08-15T06:19:07.479Z,10.50
2023-08-15T06:19:39.926Z,10.38
2023-08-15T06:20:12.435Z,10.20
2023-08-15T06:20:44.961Z,12.00
2023-08-15T06:21:17.243Z,10.27
2023-08-15T06:21:49.423Z,10.73
2023-08-15T06:22:21.705Z,10.65
2023-08-15T06:22:54.021Z,10.45
2023-08-15T06:23:26.896Z,10.73
2023-08-15T06:23:59.306Z,10.23
2023-08-15T06:24:31.623Z,10.18
2023-08-15T06:25:04.379Z,10.32
2023-08-15T06:25:40.007Z,10.15
2023-08-15T06:26:12.325Z,10.93
2023-08-15T06:26:44.652Z,9.93
2023-08-15T06:27:16.921Z,10.40
2023-08-15T06:27:49.587Z,10.43
2023-08-15T06:28:22.971Z,10.85
2023-08-15T06:28:55.335Z,10.55
2023-08-15T06:29:27.666Z,11.15
2023-08-15T06:29:59.964Z,10.82
2023-08-15T06:30:32.256Z,10.90
2023-08-15T06:31:04.568Z,10.70
2023-08-15T06:31:37.309Z,10.40
2023-08-15T06:32:25.049Z,10.75
2023-08-15T06:32:57.509Z,10.07
2023-08-15T06:33:29.874Z,10.32
2023-08-15T06:34:02.606Z,11.00
2023-08-15T06:34:36.530Z,11.63
2023-08-15T06:35:09.498Z,10.77
2023-08-15T06:35:41.882Z,11.05
2023-08-15T06:36:14.171Z,10.63
2023-08-15T06:36:46.472Z,10.63
2023-08-15T06:37:18.800Z,10.10
2023-08-15T06:37:51.165Z,10.23
2023-08-15T06:38:23.761Z,10.50
2023-08-15T06:38:56.649Z,10.32
2023-08-15T06:39:28.923Z,10.82
2023-08-15T06:40:01.606Z,11.40
2023-08-15T06:40:34.021Z,11.38
2023-08-15T06:41:07.099Z,11.02
2023-08-15T06:41:39.379Z,10.45
2023-08-15T06:42:15.190Z,10.52
2023-08-15T06:42:47.506Z,11.60
2023-08-15T06:43:19.772Z,10.82
2023-08-15T06:43:52.066Z,10.00
2023-08-15T06:44:26.471Z,10.95
2023-08-15T06:45:12.687Z,10.52
2023-08-15T06:45:45.069Z,10.93
2023-08-15T06:46:17.815Z,10.60
2023-08-15T06:46:50.473Z,10.32
2023-08-15T06:47:23.078Z,10.80
2023-08-15T06:47:56.115Z,10.20
2023-08-15T06:48:28.623Z,11.20
2023-08-15T06:49:00.940Z,10.63
2023-08-15T06:49:33.404Z,10.77
2023-08-15T06:50:06.883Z,10.90
2023-08-15T06:50:39.219Z,11.18
2023-08-15T06:51:12.038Z,10.75
2023-08-15T06:51:44.364Z,10.85
2023-08-15T06:52:16.611Z,10.90
2023-08-15T06:52:49.006Z,10.32
2023-08-15T06:53:21.310Z,10.20
2023-08-15T06:53:54.193Z,10.75
2023-08-15T06:54:26.916Z,10.30
2023-08-15T06:54:59.265Z,10.90
2023-08-15T06:55:31.536Z,10.10
2023-08-15T06:56:05.093Z,11.20
2023-08-15T06:56:39.132Z,11.30
2023-08-15T06:57:11.493Z,10.40
2023-08-15T06:57:43.950Z,10.48
2023-08-15T06:58:16.377Z,10.65
2023-08-15T06:58:48.687Z,10.38
2023-08-15T06:59:24.893Z,10.43
2023-08-15T06:59:57.286Z,10.52
2023-08-15T07:00:29.658Z,10.93
2023-08-15T07:01:02.693Z,10.68
2023-08-15T07:01:35.687Z,10.88
2023-08-15T07:02:08.056Z,11.35
2023-08-15T07:02:41.130Z,10.68
2023-08-15T07:03:17.244Z,11.32
2023-08-15T07:03:49.778Z,10.43
2023-08-15T07:04:22.319Z,10.50
2023-08-15T07:04:54.699Z,10.65
2023-08-15T07:05:27.040Z,10.13
2023-08-15T07:05:59.720Z,10.83
2023-08-15T07:06:33.388Z,11.02
2023-08-15T07:07:05.735Z,10.80
2023-08-15T07:07:40.911Z,10.63